Decoded Metar for LEBA (CORDOBA in SPAIN) (IATA:ODB) | Meteo·Mobile Aviation Weather
aviador You're here:

LEBA Decoded Metar

CORDOBA in SPAIN
Report Time2019-10-21 07:30:00
UTC Time2019-10-21 08:05:53
Flight Rules vfr VFR
WindCalm
Visibility9999 m
Phenomena:N/A
Clouds:Few 045 Hf
Expected CloudBase > 400 ft AGL from Temp-Dew spread
CeilingNone
Temp11°C (ISA -3)
Dew Point10°C (94% RH)
QNH1017 hPa
Density Alt-72 ft
Elevation302 ft
Report Wrong Elevation
Raw Report
METAR LEBA 210730Z 00000KT 9999 FEW045 11/10 Q1017=

Extra information for LEBA:More info

Metar Taf Metar & Taf Last 4 Metars F.Rules Stats Wind Profile Meteogram Temp Stats Airport Information Weather charts Add Link Nearby VenuesMetar ALERT Operation Metar Decoded Social comments